sensor_id;sensor_type;location;lat;lon;timestamp;temperature;humidity
15099;DHT22;33900;53.640;9.942;2024-02-23T00:01:28;12.60;82.00
15099;DHT22;33900;53.640;9.942;2024-02-23T00:03:54;12.50;81.60
15099;DHT22;33900;53.640;9.942;2024-02-23T00:06:20;12.50;83.50
15099;DHT22;33900;53.640;9.942;2024-02-23T00:08:46;12.40;84.20
15099;DHT22;33900;53.640;9.942;2024-02-23T00:11:11;12.30;83.00
15099;DHT22;33900;53.640;9.942;2024-02-23T00:13:37;12.30;84.00
15099;DHT22;33900;53.640;9.942;2024-02-23T00:16:02;12.30;82.70
15099;DHT22;33900;53.640;9.942;2024-02-23T00:18:28;12.20;82.90
15099;DHT22;33900;53.640;9.942;2024-02-23T00:20:54;12.10;83.70
15099;DHT22;33900;53.640;9.942;2024-02-23T00:23:19;12.10;84.10
15099;DHT22;33900;53.640;9.942;2024-02-23T00:25:44;12.10;85.00
15099;DHT22;33900;53.640;9.942;2024-02-23T00:28:10;12.00;85.10
15099;DHT22;33900;53.640;9.942;2024-02-23T00:30:36;12.00;85.40
15099;DHT22;33900;53.640;9.942;2024-02-23T00:33:01;12.00;85.60
15099;DHT22;33900;53.640;9.942;2024-02-23T00:35:27;12.00;85.10
15099;DHT22;33900;53.640;9.942;2024-02-23T00:37:52;12.00;84.70
15099;DHT22;33900;53.640;9.942;2024-02-23T00:40:18;11.90;84.60
15099;DHT22;33900;53.640;9.942;2024-02-23T00:42:45;11.90;85.50
15099;DHT22;33900;53.640;9.942;2024-02-23T00:45:11;11.90;85.30
15099;DHT22;33900;53.640;9.942;2024-02-23T00:47:36;11.80;85.20
15099;DHT22;33900;53.640;9.942;2024-02-23T00:50:03;11.80;86.50
15099;DHT22;33900;53.640;9.942;2024-02-23T00:52:28;11.70;87.40
15099;DHT22;33900;53.640;9.942;2024-02-23T00:54:54;11.60;88.20
15099;DHT22;33900;53.640;9.942;2024-02-23T00:57:19;11.50;88.80
15099;DHT22;33900;53.640;9.942;2024-02-23T00:59:52;11.30;89.10
15099;DHT22;33900;53.640;9.942;2024-02-23T01:02:18;11.20;89.10
15099;DHT22;33900;53.640;9.942;2024-02-23T01:04:43;11.10;89.20
15099;DHT22;33900;53.640;9.942;2024-02-23T01:07:09;11.00;90.30
15099;DHT22;33900;53.640;9.942;2024-02-23T01:09:35;11.00;90.20
15099;DHT22;33900;53.640;9.942;2024-02-23T01:12:00;10.90;90.20
15099;DHT22;33900;53.640;9.942;2024-02-23T01:14:26;10.90;90.30
15099;DHT22;33900;53.640;9.942;2024-02-23T01:16:51;10.80;90.30
15099;DHT22;33900;53.640;9.942;2024-02-23T01:19:17;10.80;90.40
15099;DHT22;33900;53.640;9.942;2024-02-23T01:21:43;10.80;90.30
15099;DHT22;33900;53.640;9.942;2024-02-23T01:24:09;10.70;90.30
15099;DHT22;33900;53.640;9.942;2024-02-23T01:26:34;10.70;90.40
15099;DHT22;33900;53.640;9.942;2024-02-23T01:29:00;10.70;90.40
15099;DHT22;33900;53.640;9.942;2024-02-23T01:31:26;10.60;90.50
15099;DHT22;33900;53.640;9.942;2024-02-23T01:33:51;10.60;90.50
15099;DHT22;33900;53.640;9.942;2024-02-23T01:36:17;10.60;90.40
15099;DHT22;33900;53.640;9.942;2024-02-23T01:38:43;10.60;90.60
15099;DHT22;33900;53.640;9.942;2024-02-23T01:41:09;10.60;90.70
15099;DHT22;33900;53.640;9.942;2024-02-23T01:43:36;10.60;90.80
15099;DHT22;33900;53.640;9.942;2024-02-23T01:46:02;10.60;90.90
15099;DHT22;33900;53.640;9.942;2024-02-23T01:48:28;10.60;90.70
15099;DHT22;33900;53.640;9.942;2024-02-23T01:50:54;10.60;90.70
15099;DHT22;33900;53.640;9.942;2024-02-23T01:53:20;10.60;90.50
15099;DHT22;33900;53.640;9.942;2024-02-23T01:55:46;10.60;90.60
15099;DHT22;33900;53.640;9.942;2024-02-23T01:58:12;10.50;90.00
15099;DHT22;33900;53.640;9.942;2024-02-23T02:00:38;10.50;89.50
15099;DHT22;33900;53.640;9.942;2024-02-23T02:03:04;10.50;88.20
15099;DHT22;33900;53.640;9.942;2024-02-23T02:05:30;10.40;89.20
15099;DHT22;33900;53.640;9.942;2024-02-23T02:07:55;10.40;89.40
15099;DHT22;33900;53.640;9.942;2024-02-23T02:10:24;10.40;90.00
15099;DHT22;33900;53.640;9.942;2024-02-23T02:12:50;10.40;89.70
15099;DHT22;33900;53.640;9.942;2024-02-23T02:15:15;10.40;89.10
15099;DHT22;33900;53.640;9.942;2024-02-23T02:17:41;10.30;88.80
15099;DHT22;33900;53.640;9.942;2024-02-23T02:20:06;10.30;87.80
15099;DHT22;33900;53.640;9.942;2024-02-23T02:22:36;10.30;88.60
15099;DHT22;33900;53.640;9.942;2024-02-23T02:25:01;10.30;88.10
15099;DHT22;33900;53.640;9.942;2024-02-23T02:27:27;10.20;87.80
15099;DHT22;33900;53.640;9.942;2024-02-23T02:29:53;10.20;88.40
15099;DHT22;33900;53.640;9.942;2024-02-23T02:32:18;10.20;90.00
15099;DHT22;33900;53.640;9.942;2024-02-23T02:34:44;10.10;88.80
15099;DHT22;33900;53.640;9.942;2024-02-23T02:37:09;10.20;89.20
15099;DHT22;33900;53.640;9.942;2024-02-23T02:39:35;10.10;89.10
15099;DHT22;33900;53.640;9.942;2024-02-23T02:42:01;10.00;89.40
15099;DHT22;33900;53.640;9.942;2024-02-23T02:44:27;10.00;89.50
15099;DHT22;33900;53.640;9.942;2024-02-23T02:46:56;9.90;89.60
15099;DHT22;33900;53.640;9.942;2024-02-23T02:49:21;9.90;89.60
15099;DHT22;33900;53.640;9.942;2024-02-23T02:51:47;9.80;89.40
15099;DHT22;33900;53.640;9.942;2024-02-23T02:54:13;9.80;89.70
15099;DHT22;33900;53.640;9.942;2024-02-23T02:56:45;9.70;90.10
15099;DHT22;33900;53.640;9.942;2024-02-23T02:59:11;9.70;90.30
15099;DHT22;33900;53.640;9.942;2024-02-23T03:01:37;9.70;90.10
15099;DHT22;33900;53.640;9.942;2024-02-23T03:04:03;9.70;90.30
15099;DHT22;33900;53.640;9.942;2024-02-23T03:06:28;9.70;90.50
15099;DHT22;33900;53.640;9.942;2024-02-23T03:08:54;9.60;89.90
15099;DHT22;33900;53.640;9.942;2024-02-23T03:11:19;9.60;90.10
15099;DHT22;33900;53.640;9.942;2024-02-23T03:13:45;9.60;90.30
15099;DHT22;33900;53.640;9.942;2024-02-23T03:16:17;9.60;90.10
15099;DHT22;33900;53.640;9.942;2024-02-23T03:18:42;9.50;90.30
15099;DHT22;33900;53.640;9.942;2024-02-23T03:21:08;9.50;90.40
15099;DHT22;33900;53.640;9.942;2024-02-23T03:23:37;9.50;90.50
15099;DHT22;33900;53.640;9.942;2024-02-23T03:26:03;9.50;90.00
15099;DHT22;33900;53.640;9.942;2024-02-23T03:31:57;9.50;90.50
15099;DHT22;33900;53.640;9.942;2024-02-23T03:34:23;9.50;90.10
15099;DHT22;33900;53.640;9.942;2024-02-23T03:36:48;9.50;90.10
15099;DHT22;33900;53.640;9.942;2024-02-23T03:39:15;9.40;90.20
15099;DHT22;33900;53.640;9.942;2024-02-23T03:41:40;9.50;90.30
15099;DHT22;33900;53.640;9.942;2024-02-23T03:44:06;9.40;90.40
15099;DHT22;33900;53.640;9.942;2024-02-23T03:46:31;9.30;90.20
15099;DHT22;33900;53.640;9.942;2024-02-23T03:48:57;9.30;90.30
15099;DHT22;33900;53.640;9.942;2024-02-23T03:51:23;9.30;90.20
15099;DHT22;33900;53.640;9.942;2024-02-23T03:53:48;9.30;90.30
15099;DHT22;33900;53.640;9.942;2024-02-23T03:56:14;9.30;90.30
15099;DHT22;33900;53.640;9.942;2024-02-23T03:58:40;9.20;90.20
15099;DHT22;33900;53.640;9.942;2024-02-23T04:01:05;9.20;90.10
15099;DHT22;33900;53.640;9.942;2024-02-23T04:03:31;9.20;89.90
15099;DHT22;33900;53.640;9.942;2024-02-23T04:05:56;9.20;90.00
15099;DHT22;33900;53.640;9.942;2024-02-23T04:08:22;9.20;90.10
15099;DHT22;33900;53.640;9.942;2024-02-23T04:10:47;9.10;89.80
15099;DHT22;33900;53.640;9.942;2024-02-23T04:13:13;9.00;90.00
15099;DHT22;33900;53.640;9.942;2024-02-23T04:15:39;9.00;90.10
15099;DHT22;33900;53.640;9.942;2024-02-23T04:18:05;9.00;90.00
15099;DHT22;33900;53.640;9.942;2024-02-23T04:20:31;9.00;90.10
15099;DHT22;33900;53.640;9.942;2024-02-23T04:22:57;9.00;90.10
15099;DHT22;33900;53.640;9.942;2024-02-23T04:25:22;9.00;89.40
15099;DHT22;33900;53.640;9.942;2024-02-23T04:27:48;9.00;90.00
15099;DHT22;33900;53.640;9.942;2024-02-23T04:30:14;9.00;90.20
15099;DHT22;33900;53.640;9.942;2024-02-23T04:32:39;9.00;90.30
15099;DHT22;33900;53.640;9.942;2024-02-23T04:35:05;9.00;90.20
15099;DHT22;33900;53.640;9.942;2024-02-23T04:37:31;9.00;90.30
15099;DHT22;33900;53.640;9.942;2024-02-23T04:39:56;9.00;90.00
15099;DHT22;33900;53.640;9.942;2024-02-23T04:42:22;9.00;90.00
15099;DHT22;33900;53.640;9.942;2024-02-23T04:44:48;9.00;90.00
15099;DHT22;33900;53.640;9.942;2024-02-23T04:47:15;8.90;90.10
15099;DHT22;33900;53.640;9.942;2024-02-23T04:49:40;8.90;90.20
15099;DHT22;33900;53.640;9.942;2024-02-23T04:52:07;8.90;90.30
15099;DHT22;33900;53.640;9.942;2024-02-23T04:54:34;8.90;90.30
15099;DHT22;33900;53.640;9.942;2024-02-23T04:57:00;8.90;90.00
15099;DHT22;33900;53.640;9.942;2024-02-23T04:59:26;9.00;90.10
15099;DHT22;33900;53.640;9.942;2024-02-23T05:01:51;9.00;89.80
15099;DHT22;33900;53.640;9.942;2024-02-23T05:04:17;8.90;90.00
15099;DHT22;33900;53.640;9.942;2024-02-23T05:06:42;9.00;90.20
15099;DHT22;33900;53.640;9.942;2024-02-23T05:09:09;9.00;90.30
15099;DHT22;33900;53.640;9.942;2024-02-23T05:11:35;9.00;90.40
15099;DHT22;33900;53.640;9.942;2024-02-23T05:14:00;9.00;90.40
15099;DHT22;33900;53.640;9.942;2024-02-23T05:16:29;9.00;90.50
15099;DHT22;33900;53.640;9.942;2024-02-23T05:18:54;9.00;90.30
15099;DHT22;33900;53.640;9.942;2024-02-23T05:21:20;9.00;90.10
15099;DHT22;33900;53.640;9.942;2024-02-23T05:23:46;9.00;90.20
15099;DHT22;33900;53.640;9.942;2024-02-23T05:26:14;9.00;90.20
15099;DHT22;33900;53.640;9.942;2024-02-23T05:28:40;9.00;90.20
15099;DHT22;33900;53.640;9.942;2024-02-23T05:31:05;9.00;90.30
15099;DHT22;33900;53.640;9.942;2024-02-23T05:33:31;8.90;90.20
15099;DHT22;33900;53.640;9.942;2024-02-23T05:35:57;8.90;90.20
15099;DHT22;33900;53.640;9.942;2024-02-23T05:38:23;8.90;90.30
15099;DHT22;33900;53.640;9.942;2024-02-23T05:40:48;8.90;90.20
15099;DHT22;33900;53.640;9.942;2024-02-23T05:43:15;8.90;90.10
15099;DHT22;33900;53.640;9.942;2024-02-23T05:45:41;8.90;90.30
15099;DHT22;33900;53.640;9.942;2024-02-23T05:48:06;8.90;90.30
15099;DHT22;33900;53.640;9.942;2024-02-23T05:50:32;8.90;90.30
15099;DHT22;33900;53.640;9.942;2024-02-23T05:52:58;8.90;90.50
15099;DHT22;33900;53.640;9.942;2024-02-23T05:55:24;8.90;90.30
15099;DHT22;33900;53.640;9.942;2024-02-23T05:57:49;8.80;89.80
15099;DHT22;33900;53.640;9.942;2024-02-23T06:00:16;8.80;90.00
15099;DHT22;33900;53.640;9.942;2024-02-23T06:02:44;8.80;90.20
15099;DHT22;33900;53.640;9.942;2024-02-23T06:05:10;8.90;90.20
15099;DHT22;33900;53.640;9.942;2024-02-23T06:07:35;8.80;89.80
15099;DHT22;33900;53.640;9.942;2024-02-23T06:10:02;8.80;90.00
15099;DHT22;33900;53.640;9.942;2024-02-23T06:12:27;8.80;89.30
15099;DHT22;33900;53.640;9.942;2024-02-23T06:14:53;8.80;89.80
15099;DHT22;33900;53.640;9.942;2024-02-23T06:17:20;8.80;90.10
15099;DHT22;33900;53.640;9.942;2024-02-23T06:19:46;8.80;90.20
15099;DHT22;33900;53.640;9.942;2024-02-23T06:22:11;8.80;90.10
15099;DHT22;33900;53.640;9.942;2024-02-23T06:24:37;8.80;90.10
15099;DHT22;33900;53.640;9.942;2024-02-23T06:27:03;8.80;90.00
15099;DHT22;33900;53.640;9.942;2024-02-23T06:29:29;8.70;90.00
15099;DHT22;33900;53.640;9.942;2024-02-23T06:31:55;8.80;90.10
15099;DHT22;33900;53.640;9.942;2024-02-23T06:34:20;8.80;90.10
15099;DHT22;33900;53.640;9.942;2024-02-23T06:36:46;8.80;89.60
15099;DHT22;33900;53.640;9.942;2024-02-23T06:39:12;8.70;90.00
15099;DHT22;33900;53.640;9.942;2024-02-23T06:41:38;8.70;89.10
15099;DHT22;33900;53.640;9.942;2024-02-23T06:44:04;8.70;88.80
15099;DHT22;33900;53.640;9.942;2024-02-23T06:46:30;8.70;88.20
15099;DHT22;33900;53.640;9.942;2024-02-23T06:48:55;8.70;88.60
15099;DHT22;33900;53.640;9.942;2024-02-23T06:51:21;8.60;88.50
15099;DHT22;33900;53.640;9.942;2024-02-23T06:53:48;8.60;88.60
15099;DHT22;33900;53.640;9.942;2024-02-23T06:56:13;8.60;89.00
15099;DHT22;33900;53.640;9.942;2024-02-23T06:58:39;8.70;88.70
15099;DHT22;33900;53.640;9.942;2024-02-23T07:01:05;8.60;89.00
15099;DHT22;33900;53.640;9.942;2024-02-23T07:03:36;8.60;89.30
15099;DHT22;33900;53.640;9.942;2024-02-23T07:06:02;8.70;88.90
15099;DHT22;33900;53.640;9.942;2024-02-23T07:08:28;8.60;89.30
15099;DHT22;33900;53.640;9.942;2024-02-23T07:10:55;8.60;89.50
15099;DHT22;33900;53.640;9.942;2024-02-23T07:13:20;8.70;89.30
15099;DHT22;33900;53.640;9.942;2024-02-23T07:15:46;8.60;89.40
15099;DHT22;33900;53.640;9.942;2024-02-23T07:18:12;8.70;89.40
15099;DHT22;33900;53.640;9.942;2024-02-23T07:20:37;8.70;89.60
15099;DHT22;33900;53.640;9.942;2024-02-23T07:23:04;8.70;89.60
15099;DHT22;33900;53.640;9.942;2024-02-23T07:25:29;8.70;89.70
15099;DHT22;33900;53.640;9.942;2024-02-23T07:27:55;8.70;89.80
15099;DHT22;33900;53.640;9.942;2024-02-23T07:30:20;8.70;90.00
15099;DHT22;33900;53.640;9.942;2024-02-23T07:32:46;8.70;89.70
15099;DHT22;33900;53.640;9.942;2024-02-23T07:35:11;8.70;89.60
15099;DHT22;33900;53.640;9.942;2024-02-23T07:37:37;8.70;89.90
15099;DHT22;33900;53.640;9.942;2024-02-23T07:40:03;8.70;89.80
15099;DHT22;33900;53.640;9.942;2024-02-23T07:42:30;8.70;89.30
15099;DHT22;33900;53.640;9.942;2024-02-23T07:44:55;8.70;89.30
15099;DHT22;33900;53.640;9.942;2024-02-23T07:47:21;8.60;89.50
15099;DHT22;33900;53.640;9.942;2024-02-23T07:49:47;8.60;89.90
15099;DHT22;33900;53.640;9.942;2024-02-23T07:52:12;8.60;90.00
15099;DHT22;33900;53.640;9.942;2024-02-23T07:54:38;8.60;89.90
15099;DHT22;33900;53.640;9.942;2024-02-23T07:57:04;8.70;90.10
15099;DHT22;33900;53.640;9.942;2024-02-23T07:59:32;8.70;90.50
15099;DHT22;33900;53.640;9.942;2024-02-23T08:01:58;8.70;90.10
15099;DHT22;33900;53.640;9.942;2024-02-23T08:04:24;8.70;89.70
15099;DHT22;33900;53.640;9.942;2024-02-23T08:06:49;8.70;89.80
15099;DHT22;33900;53.640;9.942;2024-02-23T08:09:16;8.70;90.00
15099;DHT22;33900;53.640;9.942;2024-02-23T08:11:42;8.70;90.10
15099;DHT22;33900;53.640;9.942;2024-02-23T08:14:07;8.80;90.10
15099;DHT22;33900;53.640;9.942;2024-02-23T08:16:33;8.80;90.20
15099;DHT22;33900;53.640;9.942;2024-02-23T08:18:59;8.80;90.20
15099;DHT22;33900;53.640;9.942;2024-02-23T08:21:25;8.80;90.00
15099;DHT22;33900;53.640;9.942;2024-02-23T08:23:51;8.80;89.80
15099;DHT22;33900;53.640;9.942;2024-02-23T08:26:17;8.80;90.00
15099;DHT22;33900;53.640;9.942;2024-02-23T08:28:42;8.80;90.00
15099;DHT22;33900;53.640;9.942;2024-02-23T08:31:08;8.90;90.00
15099;DHT22;33900;53.640;9.942;2024-02-23T08:33:33;8.90;90.10
15099;DHT22;33900;53.640;9.942;2024-02-23T08:35:59;8.90;90.10
15099;DHT22;33900;53.640;9.942;2024-02-23T08:38:25;9.00;90.00
15099;DHT22;33900;53.640;9.942;2024-02-23T08:40:50;9.10;89.80
15099;DHT22;33900;53.640;9.942;2024-02-23T08:43:16;9.10;89.20
15099;DHT22;33900;53.640;9.942;2024-02-23T08:45:41;9.10;89.60
15099;DHT22;33900;53.640;9.942;2024-02-23T08:48:07;9.20;89.80
15099;DHT22;33900;53.640;9.942;2024-02-23T08:50:34;9.30;89.80
15099;DHT22;33900;53.640;9.942;2024-02-23T08:52:59;9.30;88.60
15099;DHT22;33900;53.640;9.942;2024-02-23T08:55:25;9.30;88.40
15099;DHT22;33900;53.640;9.942;2024-02-23T08:57:50;9.30;88.50
15099;DHT22;33900;53.640;9.942;2024-02-23T09:00:16;9.30;88.10
15099;DHT22;33900;53.640;9.942;2024-02-23T09:02:42;9.40;87.50
15099;DHT22;33900;53.640;9.942;2024-02-23T09:05:08;9.40;87.40
15099;DHT22;33900;53.640;9.942;2024-02-23T09:07:33;9.50;87.80
15099;DHT22;33900;53.640;9.942;2024-02-23T09:09:59;9.50;86.90
15099;DHT22;33900;53.640;9.942;2024-02-23T09:12:25;9.50;88.00
15099;DHT22;33900;53.640;9.942;2024-02-23T09:14:51;9.50;87.40
15099;DHT22;33900;53.640;9.942;2024-02-23T09:17:16;9.50;87.40
15099;DHT22;33900;53.640;9.942;2024-02-23T09:19:44;9.60;86.90
15099;DHT22;33900;53.640;9.942;2024-02-23T09:22:09;9.60;87.50
15099;DHT22;33900;53.640;9.942;2024-02-23T09:24:35;9.70;86.50
15099;DHT22;33900;53.640;9.942;2024-02-23T09:27:00;9.70;86.60
15099;DHT22;33900;53.640;9.942;2024-02-23T09:29:27;9.70;86.40
15099;DHT22;33900;53.640;9.942;2024-02-23T09:31:52;9.70;86.40
15099;DHT22;33900;53.640;9.942;2024-02-23T09:34:18;9.70;86.20
15099;DHT22;33900;53.640;9.942;2024-02-23T09:36:43;9.80;86.40
15099;DHT22;33900;53.640;9.942;2024-02-23T09:39:11;9.80;85.40
15099;DHT22;33900;53.640;9.942;2024-02-23T09:41:37;9.80;84.90
15099;DHT22;33900;53.640;9.942;2024-02-23T09:44:04;9.80;84.30
15099;DHT22;33900;53.640;9.942;2024-02-23T09:46:32;9.80;85.10
15099;DHT22;33900;53.640;9.942;2024-02-23T09:48:59;9.80;85.40
15099;DHT22;33900;53.640;9.942;2024-02-23T09:51:25;9.80;85.20
15099;DHT22;33900;53.640;9.942;2024-02-23T09:53:51;9.80;84.30
15099;DHT22;33900;53.640;9.942;2024-02-23T09:56:17;9.80;84.60
15099;DHT22;33900;53.640;9.942;2024-02-23T09:58:45;9.80;85.30
15099;DHT22;33900;53.640;9.942;2024-02-23T10:01:12;9.80;84.80
15099;DHT22;33900;53.640;9.942;2024-02-23T10:03:40;9.90;85.60
15099;DHT22;33900;53.640;9.942;2024-02-23T10:06:06;10.00;86.00
15099;DHT22;33900;53.640;9.942;2024-02-23T10:08:32;10.00;83.40
15099;DHT22;33900;53.640;9.942;2024-02-23T10:11:00;10.10;84.40
15099;DHT22;33900;53.640;9.942;2024-02-23T10:13:25;10.10;84.60
15099;DHT22;33900;53.640;9.942;2024-02-23T10:15:52;10.10;84.60
15099;DHT22;33900;53.640;9.942;2024-02-23T10:18:17;10.20;84.60
15099;DHT22;33900;53.640;9.942;2024-02-23T10:20:43;10.30;85.10
15099;DHT22;33900;53.640;9.942;2024-02-23T10:23:09;10.50;84.10
15099;DHT22;33900;53.640;9.942;2024-02-23T10:25:35;10.50;83.40
15099;DHT22;33900;53.640;9.942;2024-02-23T10:28:01;10.40;83.50
15099;DHT22;33900;53.640;9.942;2024-02-23T10:30:27;10.40;83.90
15099;DHT22;33900;53.640;9.942;2024-02-23T10:32:54;10.50;83.20
15099;DHT22;33900;53.640;9.942;2024-02-23T10:35:20;10.50;83.90
15099;DHT22;33900;53.640;9.942;2024-02-23T10:37:48;10.60;83.80
15099;DHT22;33900;53.640;9.942;2024-02-23T10:40:16;10.60;83.10
15099;DHT22;33900;53.640;9.942;2024-02-23T10:42:43;10.60;83.10
15099;DHT22;33900;53.640;9.942;2024-02-23T10:45:10;10.70;83.20
15099;DHT22;33900;53.640;9.942;2024-02-23T10:47:35;10.70;83.60
15099;DHT22;33900;53.640;9.942;2024-02-23T10:50:01;10.80;82.80
15099;DHT22;33900;53.640;9.942;2024-02-23T10:52:28;10.80;83.30
15099;DHT22;33900;53.640;9.942;2024-02-23T10:54:53;10.90;82.80
15099;DHT22;33900;53.640;9.942;2024-02-23T10:57:19;10.90;81.00
15099;DHT22;33900;53.640;9.942;2024-02-23T10:59:45;10.90;81.10
15099;DHT22;33900;53.640;9.942;2024-02-23T11:02:11;10.90;81.20
15099;DHT22;33900;53.640;9.942;2024-02-23T11:04:41;10.90;80.10
15099;DHT22;33900;53.640;9.942;2024-02-23T11:07:12;10.80;81.10
15099;DHT22;33900;53.640;9.942;2024-02-23T11:09:38;10.80;80.90
15099;DHT22;33900;53.640;9.942;2024-02-23T11:12:05;10.80;81.20
15099;DHT22;33900;53.640;9.942;2024-02-23T11:14:35;10.70;80.80
15099;DHT22;33900;53.640;9.942;2024-02-23T11:17:01;10.70;80.80
15099;DHT22;33900;53.640;9.942;2024-02-23T11:19:37;10.70;81.10
15099;DHT22;33900;53.640;9.942;2024-02-23T11:22:03;10.70;80.80
15099;DHT22;33900;53.640;9.942;2024-02-23T11:24:29;10.70;80.60
15099;DHT22;33900;53.640;9.942;2024-02-23T11:26:58;10.70;80.90
15099;DHT22;33900;53.640;9.942;2024-02-23T11:29:28;10.70;80.80
15099;DHT22;33900;53.640;9.942;2024-02-23T11:31:54;10.80;80.80
15099;DHT22;33900;53.640;9.942;2024-02-23T11:34:26;10.70;80.80
15099;DHT22;33900;53.640;9.942;2024-02-23T11:36:52;10.70;80.90
15099;DHT22;33900;53.640;9.942;2024-02-23T11:39:21;10.70;81.00
15099;DHT22;33900;53.640;9.942;2024-02-23T11:41:50;10.70;80.80
15099;DHT22;33900;53.640;9.942;2024-02-23T11:44:18;10.70;80.80
15099;DHT22;33900;53.640;9.942;2024-02-23T11:46:44;10.70;79.60
15099;DHT22;33900;53.640;9.942;2024-02-23T11:49:13;10.70;80.40
15099;DHT22;33900;53.640;9.942;2024-02-23T11:51:39;10.80;81.10
15099;DHT22;33900;53.640;9.942;2024-02-23T11:54:05;10.90;81.50
15099;DHT22;33900;53.640;9.942;2024-02-23T11:56:31;11.00;81.50
15099;DHT22;33900;53.640;9.942;2024-02-23T11:58:57;11.00;80.40
15099;DHT22;33900;53.640;9.942;2024-02-23T12:01:22;11.10;80.60
15099;DHT22;33900;53.640;9.942;2024-02-23T12:03:48;11.20;80.60
15099;DHT22;33900;53.640;9.942;2024-02-23T12:06:14;11.20;80.30
15099;DHT22;33900;53.640;9.942;2024-02-23T12:08:41;11.20;80.10
15099;DHT22;33900;53.640;9.942;2024-02-23T12:11:07;11.30;80.80
15099;DHT22;33900;53.640;9.942;2024-02-23T12:13:34;11.20;80.70
15099;DHT22;33900;53.640;9.942;2024-02-23T12:16:00;11.30;80.60
15099;DHT22;33900;53.640;9.942;2024-02-23T12:18:25;11.30;80.20
15099;DHT22;33900;53.640;9.942;2024-02-23T12:21:15;11.30;79.20
15099;DHT22;33900;53.640;9.942;2024-02-23T12:23:41;11.40;79.10
15099;DHT22;33900;53.640;9.942;2024-02-23T12:26:07;11.40;79.60
15099;DHT22;33900;53.640;9.942;2024-02-23T12:28:33;11.40;79.10
15099;DHT22;33900;53.640;9.942;2024-02-23T12:31:02;11.40;79.00
15099;DHT22;33900;53.640;9.942;2024-02-23T12:33:28;11.40;78.70
15099;DHT22;33900;53.640;9.942;2024-02-23T12:35:55;11.30;78.40
15099;DHT22;33900;53.640;9.942;2024-02-23T12:38:21;11.30;78.70
15099;DHT22;33900;53.640;9.942;2024-02-23T12:40:47;11.30;78.60
15099;DHT22;33900;53.640;9.942;2024-02-23T12:43:13;11.20;78.80
15099;DHT22;33900;53.640;9.942;2024-02-23T12:45:38;11.20;78.70
15099;DHT22;33900;53.640;9.942;2024-02-23T12:48:04;11.20;78.90
15099;DHT22;33900;53.640;9.942;2024-02-23T12:50:30;11.20;77.70
15099;DHT22;33900;53.640;9.942;2024-02-23T12:52:56;11.20;77.60
15099;DHT22;33900;53.640;9.942;2024-02-23T12:55:22;11.20;78.30
15099;DHT22;33900;53.640;9.942;2024-02-23T12:57:47;11.20;75.90
15099;DHT22;33900;53.640;9.942;2024-02-23T13:00:13;11.10;76.70
15099;DHT22;33900;53.640;9.942;2024-02-23T13:02:39;11.10;77.00
15099;DHT22;33900;53.640;9.942;2024-02-23T13:05:04;11.20;76.80
15099;DHT22;33900;53.640;9.942;2024-02-23T13:07:30;11.20;76.50
15099;DHT22;33900;53.640;9.942;2024-02-23T13:09:55;11.20;76.50
15099;DHT22;33900;53.640;9.942;2024-02-23T13:12:21;11.20;76.30
15099;DHT22;33900;53.640;9.942;2024-02-23T13:14:46;11.20;75.50
15099;DHT22;33900;53.640;9.942;2024-02-23T13:17:12;11.20;75.90
15099;DHT22;33900;53.640;9.942;2024-02-23T13:19:38;11.30;74.50
15099;DHT22;33900;53.640;9.942;2024-02-23T13:22:03;11.20;74.60
15099;DHT22;33900;53.640;9.942;2024-02-23T13:24:29;11.20;75.30
15099;DHT22;33900;53.640;9.942;2024-02-23T13:26:54;11.20;75.50
15099;DHT22;33900;53.640;9.942;2024-02-23T13:29:20;11.10;75.00
15099;DHT22;33900;53.640;9.942;2024-02-23T13:31:46;11.10;75.30
15099;DHT22;33900;53.640;9.942;2024-02-23T13:34:11;11.10;75.70
15099;DHT22;33900;53.640;9.942;2024-02-23T13:36:37;11.10;76.20
15099;DHT22;33900;53.640;9.942;2024-02-23T13:39:04;11.10;75.60
15099;DHT22;33900;53.640;9.942;2024-02-23T13:41:30;11.10;76.00
15099;DHT22;33900;53.640;9.942;2024-02-23T13:43:55;11.10;76.50
15099;DHT22;33900;53.640;9.942;2024-02-23T13:46:21;11.10;76.50
15099;DHT22;33900;53.640;9.942;2024-02-23T13:48:48;11.10;76.40
15099;DHT22;33900;53.640;9.942;2024-02-23T13:51:15;11.00;76.30
15099;DHT22;33900;53.640;9.942;2024-02-23T13:53:40;11.10;76.00
15099;DHT22;33900;53.640;9.942;2024-02-23T13:56:06;11.00;75.60
15099;DHT22;33900;53.640;9.942;2024-02-23T13:58:31;11.00;75.80
15099;DHT22;33900;53.640;9.942;2024-02-23T14:00:57;11.00;76.10
15099;DHT22;33900;53.640;9.942;2024-02-23T14:03:23;11.00;76.80
15099;DHT22;33900;53.640;9.942;2024-02-23T14:05:49;11.00;77.00
15099;DHT22;33900;53.640;9.942;2024-02-23T14:08:14;11.00;77.20
15099;DHT22;33900;53.640;9.942;2024-02-23T14:10:40;11.00;77.20
15099;DHT22;33900;53.640;9.942;2024-02-23T14:13:06;11.00;76.80
15099;DHT22;33900;53.640;9.942;2024-02-23T14:15:31;11.00;76.40
15099;DHT22;33900;53.640;9.942;2024-02-23T14:17:57;11.00;77.00
15099;DHT22;33900;53.640;9.942;2024-02-23T14:20:23;11.00;77.30
15099;DHT22;33900;53.640;9.942;2024-02-23T14:22:48;11.10;77.60
15099;DHT22;33900;53.640;9.942;2024-02-23T14:25:15;11.10;77.50
15099;DHT22;33900;53.640;9.942;2024-02-23T14:27:41;11.20;78.20
15099;DHT22;33900;53.640;9.942;2024-02-23T14:30:07;11.40;76.70
15099;DHT22;33900;53.640;9.942;2024-02-23T14:32:33;11.40;75.90
15099;DHT22;33900;53.640;9.942;2024-02-23T14:35:01;11.40;76.50
15099;DHT22;33900;53.640;9.942;2024-02-23T14:37:28;11.40;76.30
15099;DHT22;33900;53.640;9.942;2024-02-23T14:39:54;11.40;75.70
15099;DHT22;33900;53.640;9.942;2024-02-23T14:42:20;11.40;74.90
15099;DHT22;33900;53.640;9.942;2024-02-23T14:44:46;11.40;74.70
15099;DHT22;33900;53.640;9.942;2024-02-23T14:47:11;11.40;74.80
15099;DHT22;33900;53.640;9.942;2024-02-23T14:49:38;11.40;75.50
15099;DHT22;33900;53.640;9.942;2024-02-23T14:52:04;11.40;75.30
15099;DHT22;33900;53.640;9.942;2024-02-23T14:54:29;11.30;75.30
15099;DHT22;33900;53.640;9.942;2024-02-23T14:56:55;11.40;75.70
15099;DHT22;33900;53.640;9.942;2024-02-23T14:59:21;11.30;75.60
15099;DHT22;33900;53.640;9.942;2024-02-23T15:01:46;11.30;74.90
15099;DHT22;33900;53.640;9.942;2024-02-23T15:04:12;11.30;74.30
15099;DHT22;33900;53.640;9.942;2024-02-23T15:06:38;11.30;74.80
15099;DHT22;33900;53.640;9.942;2024-02-23T15:09:03;11.30;74.30
15099;DHT22;33900;53.640;9.942;2024-02-23T15:11:29;11.30;74.70
15099;DHT22;33900;53.640;9.942;2024-02-23T15:13:55;11.30;75.20
15099;DHT22;33900;53.640;9.942;2024-02-23T15:16:24;11.30;74.90
15099;DHT22;33900;53.640;9.942;2024-02-23T15:18:49;11.20;74.80
15099;DHT22;33900;53.640;9.942;2024-02-23T15:21:15;11.30;74.90
15099;DHT22;33900;53.640;9.942;2024-02-23T15:23:43;11.20;74.10
15099;DHT22;33900;53.640;9.942;2024-02-23T15:26:08;11.20;74.50
15099;DHT22;33900;53.640;9.942;2024-02-23T15:28:34;11.20;74.80
15099;DHT22;33900;53.640;9.942;2024-02-23T15:31:00;11.20;75.10
15099;DHT22;33900;53.640;9.942;2024-02-23T15:33:28;11.20;75.10